sensor_id;sensor_type;location;lat;lon;timestamp;temperature;humidity
28358;DHT22;15605;48.114;11.522;2024-02-04T00:01:44;10.80;67.30
28358;DHT22;15605;48.114;11.522;2024-02-04T00:04:16;10.70;67.20
28358;DHT22;15605;48.114;11.522;2024-02-04T00:06:47;10.70;67.20
28358;DHT22;15605;48.114;11.522;2024-02-04T00:09:18;10.70;67.40
28358;DHT22;15605;48.114;11.522;2024-02-04T00:11:50;10.70;67.20
28358;DHT22;15605;48.114;11.522;2024-02-04T00:14:24;10.70;67.40
28358;DHT22;15605;48.114;11.522;2024-02-04T00:16:55;10.70;67.30
28358;DHT22;15605;48.114;11.522;2024-02-04T00:19:30;10.70;67.30
28358;DHT22;15605;48.114;11.522;2024-02-04T00:22:02;10.70;67.40
28358;DHT22;15605;48.114;11.522;2024-02-04T00:24:33;10.70;67.50
28358;DHT22;15605;48.114;11.522;2024-02-04T00:27:05;10.70;67.40
28358;DHT22;15605;48.114;11.522;2024-02-04T00:29:41;10.70;67.30
28358;DHT22;15605;48.114;11.522;2024-02-04T00:32:13;10.70;67.30
28358;DHT22;15605;48.114;11.522;2024-02-04T00:34:45;10.70;67.40
28358;DHT22;15605;48.114;11.522;2024-02-04T00:37:16;10.70;67.40
28358;DHT22;15605;48.114;11.522;2024-02-04T00:39:47;10.70;67.50
28358;DHT22;15605;48.114;11.522;2024-02-04T00:42:18;10.70;67.50
28358;DHT22;15605;48.114;11.522;2024-02-04T00:44:50;10.70;67.40
28358;DHT22;15605;48.114;11.522;2024-02-04T00:47:23;10.70;67.40
28358;DHT22;15605;48.114;11.522;2024-02-04T00:49:55;10.70;67.40
28358;DHT22;15605;48.114;11.522;2024-02-04T00:52:26;10.70;67.40
28358;DHT22;15605;48.114;11.522;2024-02-04T00:54:57;10.70;67.50
28358;DHT22;15605;48.114;11.522;2024-02-04T00:57:29;10.70;67.70
28358;DHT22;15605;48.114;11.522;2024-02-04T00:59:59;10.70;67.50
28358;DHT22;15605;48.114;11.522;2024-02-04T01:02:31;10.70;67.50
28358;DHT22;15605;48.114;11.522;2024-02-04T01:05:01;10.70;67.50
28358;DHT22;15605;48.114;11.522;2024-02-04T01:07:33;10.70;67.60
28358;DHT22;15605;48.114;11.522;2024-02-04T01:10:05;10.70;67.60
28358;DHT22;15605;48.114;11.522;2024-02-04T01:12:36;10.70;67.60
28358;DHT22;15605;48.114;11.522;2024-02-04T01:15:08;10.70;67.80
28358;DHT22;15605;48.114;11.522;2024-02-04T01:17:40;10.70;67.70
28358;DHT22;15605;48.114;11.522;2024-02-04T01:20:12;10.70;67.70
28358;DHT22;15605;48.114;11.522;2024-02-04T01:22:43;10.70;67.70
28358;DHT22;15605;48.114;11.522;2024-02-04T01:25:14;10.70;67.70
28358;DHT22;15605;48.114;11.522;2024-02-04T01:27:43;10.70;67.60
28358;DHT22;15605;48.114;11.522;2024-02-04T01:30:15;10.70;67.80
28358;DHT22;15605;48.114;11.522;2024-02-04T01:32:47;10.70;67.80
28358;DHT22;15605;48.114;11.522;2024-02-04T01:35:17;10.70;67.80
28358;DHT22;15605;48.114;11.522;2024-02-04T01:37:49;10.70;67.80
28358;DHT22;15605;48.114;11.522;2024-02-04T01:40:21;10.70;67.80
28358;DHT22;15605;48.114;11.522;2024-02-04T01:42:54;10.70;67.80
28358;DHT22;15605;48.114;11.522;2024-02-04T01:45:27;10.70;68.00
28358;DHT22;15605;48.114;11.522;2024-02-04T01:48:02;10.70;67.80
28358;DHT22;15605;48.114;11.522;2024-02-04T01:50:36;10.70;67.90
28358;DHT22;15605;48.114;11.522;2024-02-04T01:53:07;10.70;67.90
28358;DHT22;15605;48.114;11.522;2024-02-04T01:55:39;10.70;67.90
28358;DHT22;15605;48.114;11.522;2024-02-04T01:58:11;10.60;67.70
28358;DHT22;15605;48.114;11.522;2024-02-04T02:00:42;10.70;67.80
28358;DHT22;15605;48.114;11.522;2024-02-04T02:03:16;10.60;67.80
28358;DHT22;15605;48.114;11.522;2024-02-04T02:05:48;10.70;67.90
28358;DHT22;15605;48.114;11.522;2024-02-04T02:08:21;10.70;67.70
28358;DHT22;15605;48.114;11.522;2024-02-04T02:10:55;10.70;67.70
28358;DHT22;15605;48.114;11.522;2024-02-04T02:13:30;10.70;67.70
28358;DHT22;15605;48.114;11.522;2024-02-04T02:16:34;10.70;67.70
28358;DHT22;15605;48.114;11.522;2024-02-04T02:22:01;10.70;67.80
28358;DHT22;15605;48.114;11.522;2024-02-04T02:24:38;10.70;67.90
28358;DHT22;15605;48.114;11.522;2024-02-04T02:27:10;10.70;67.90
28358;DHT22;15605;48.114;11.522;2024-02-04T02:29:40;10.60;67.80
28358;DHT22;15605;48.114;11.522;2024-02-04T02:32:12;10.70;67.90
28358;DHT22;15605;48.114;11.522;2024-02-04T02:34:44;10.70;67.80
28358;DHT22;15605;48.114;11.522;2024-02-04T02:43:03;10.70;67.80
28358;DHT22;15605;48.114;11.522;2024-02-04T02:45:35;10.70;67.80
28358;DHT22;15605;48.114;11.522;2024-02-04T02:48:08;10.70;67.80
28358;DHT22;15605;48.114;11.522;2024-02-04T02:50:39;10.70;67.70
28358;DHT22;15605;48.114;11.522;2024-02-04T02:53:10;10.70;67.70
28358;DHT22;15605;48.114;11.522;2024-02-04T02:55:42;10.70;67.60
28358;DHT22;15605;48.114;11.522;2024-02-04T02:58:16;10.70;67.80
28358;DHT22;15605;48.114;11.522;2024-02-04T03:00:47;10.70;67.70
28358;DHT22;15605;48.114;11.522;2024-02-04T03:03:19;10.70;67.70
28358;DHT22;15605;48.114;11.522;2024-02-04T03:05:52;10.70;67.70
28358;DHT22;15605;48.114;11.522;2024-02-04T03:08:32;10.70;67.70
28358;DHT22;15605;48.114;11.522;2024-02-04T03:11:03;10.70;67.80
28358;DHT22;15605;48.114;11.522;2024-02-04T03:13:34;10.70;67.70
28358;DHT22;15605;48.114;11.522;2024-02-04T03:16:14;10.80;67.70
28358;DHT22;15605;48.114;11.522;2024-02-04T03:18:47;10.70;67.70
28358;DHT22;15605;48.114;11.522;2024-02-04T03:21:19;10.70;67.70
28358;DHT22;15605;48.114;11.522;2024-02-04T03:23:51;10.70;67.80
28358;DHT22;15605;48.114;11.522;2024-02-04T03:26:24;10.70;67.80
28358;DHT22;15605;48.114;11.522;2024-02-04T03:28:56;10.70;67.80
28358;DHT22;15605;48.114;11.522;2024-02-04T03:31:28;10.70;67.70
28358;DHT22;15605;48.114;11.522;2024-02-04T03:34:00;10.70;67.80
28358;DHT22;15605;48.114;11.522;2024-02-04T03:36:36;10.70;67.90
28358;DHT22;15605;48.114;11.522;2024-02-04T03:39:08;10.70;67.80
28358;DHT22;15605;48.114;11.522;2024-02-04T03:41:39;10.70;67.80
28358;DHT22;15605;48.114;11.522;2024-02-04T03:44:10;10.70;67.60
28358;DHT22;15605;48.114;11.522;2024-02-04T03:46:41;10.70;67.70
28358;DHT22;15605;48.114;11.522;2024-02-04T03:49:13;10.70;67.70
28358;DHT22;15605;48.114;11.522;2024-02-04T03:51:43;10.70;67.60
28358;DHT22;15605;48.114;11.522;2024-02-04T03:54:15;10.70;67.60
28358;DHT22;15605;48.114;11.522;2024-02-04T03:56:49;10.70;67.70
28358;DHT22;15605;48.114;11.522;2024-02-04T03:59:20;10.70;67.70
28358;DHT22;15605;48.114;11.522;2024-02-04T04:01:52;10.70;67.60
28358;DHT22;15605;48.114;11.522;2024-02-04T04:04:27;10.70;67.70
28358;DHT22;15605;48.114;11.522;2024-02-04T04:06:59;10.70;67.80
28358;DHT22;15605;48.114;11.522;2024-02-04T04:09:30;10.70;67.80
28358;DHT22;15605;48.114;11.522;2024-02-04T04:12:01;10.70;67.80
28358;DHT22;15605;48.114;11.522;2024-02-04T04:14:33;10.70;67.80
28358;DHT22;15605;48.114;11.522;2024-02-04T04:17:05;10.70;67.80
28358;DHT22;15605;48.114;11.522;2024-02-04T04:19:38;10.60;67.90
28358;DHT22;15605;48.114;11.522;2024-02-04T04:22:10;10.70;68.00
28358;DHT22;15605;48.114;11.522;2024-02-04T04:24:41;10.70;67.80
28358;DHT22;15605;48.114;11.522;2024-02-04T04:27:12;10.70;67.80
28358;DHT22;15605;48.114;11.522;2024-02-04T04:29:44;10.70;67.80
28358;DHT22;15605;48.114;11.522;2024-02-04T04:32:17;10.70;67.80
28358;DHT22;15605;48.114;11.522;2024-02-04T04:34:48;10.70;67.80
28358;DHT22;15605;48.114;11.522;2024-02-04T04:37:20;10.70;67.80
28358;DHT22;15605;48.114;11.522;2024-02-04T04:39:52;10.80;67.70
28358;DHT22;15605;48.114;11.522;2024-02-04T04:42:25;10.80;67.60
28358;DHT22;15605;48.114;11.522;2024-02-04T04:44:58;10.80;67.70
28358;DHT22;15605;48.114;11.522;2024-02-04T04:47:29;10.70;67.70
28358;DHT22;15605;48.114;11.522;2024-02-04T04:50:01;10.70;67.80
28358;DHT22;15605;48.114;11.522;2024-02-04T04:52:33;10.70;67.90
28358;DHT22;15605;48.114;11.522;2024-02-04T04:55:08;10.70;68.10
28358;DHT22;15605;48.114;11.522;2024-02-04T04:57:40;10.70;68.10
28358;DHT22;15605;48.114;11.522;2024-02-04T05:00:11;10.70;68.10
28358;DHT22;15605;48.114;11.522;2024-02-04T05:02:42;10.70;68.00
28358;DHT22;15605;48.114;11.522;2024-02-04T05:05:14;10.70;67.90
28358;DHT22;15605;48.114;11.522;2024-02-04T05:07:46;10.70;67.90
28358;DHT22;15605;48.114;11.522;2024-02-04T05:10:19;10.70;68.00
28358;DHT22;15605;48.114;11.522;2024-02-04T05:12:52;10.70;68.10
28358;DHT22;15605;48.114;11.522;2024-02-04T05:15:24;10.70;68.30
28358;DHT22;15605;48.114;11.522;2024-02-04T05:17:56;10.70;68.90
28358;DHT22;15605;48.114;11.522;2024-02-04T05:20:29;10.70;68.20
28358;DHT22;15605;48.114;11.522;2024-02-04T05:22:59;10.70;68.20
28358;DHT22;15605;48.114;11.522;2024-02-04T05:25:31;10.70;68.10
28358;DHT22;15605;48.114;11.522;2024-02-04T05:28:02;10.70;68.10
28358;DHT22;15605;48.114;11.522;2024-02-04T05:30:33;10.70;68.20
28358;DHT22;15605;48.114;11.522;2024-02-04T05:33:05;10.70;68.20
28358;DHT22;15605;48.114;11.522;2024-02-04T05:35:36;10.70;68.20
28358;DHT22;15605;48.114;11.522;2024-02-04T05:38:10;10.70;68.20
28358;DHT22;15605;48.114;11.522;2024-02-04T05:40:42;10.70;68.20
28358;DHT22;15605;48.114;11.522;2024-02-04T05:43:13;10.70;68.30
28358;DHT22;15605;48.114;11.522;2024-02-04T05:45:44;10.70;68.30
28358;DHT22;15605;48.114;11.522;2024-02-04T05:48:17;10.70;68.50
28358;DHT22;15605;48.114;11.522;2024-02-04T05:50:48;10.70;68.40
28358;DHT22;15605;48.114;11.522;2024-02-04T05:53:20;10.70;68.40
28358;DHT22;15605;48.114;11.522;2024-02-04T05:55:53;10.70;68.40
28358;DHT22;15605;48.114;11.522;2024-02-04T05:58:25;10.70;68.40
28358;DHT22;15605;48.114;11.522;2024-02-04T06:01:15;10.70;68.50
28358;DHT22;15605;48.114;11.522;2024-02-04T06:04:47;10.70;68.50
28358;DHT22;15605;48.114;11.522;2024-02-04T06:07:35;10.60;68.90
28358;DHT22;15605;48.114;11.522;2024-02-04T06:10:15;10.70;69.20
28358;DHT22;15605;48.114;11.522;2024-02-04T06:16:20;10.60;70.20
28358;DHT22;15605;48.114;11.522;2024-02-04T06:18:53;10.60;70.60
28358;DHT22;15605;48.114;11.522;2024-02-04T06:21:37;10.60;70.80
28358;DHT22;15605;48.114;11.522;2024-02-04T06:24:15;10.60;71.10
28358;DHT22;15605;48.114;11.522;2024-02-04T06:26:50;10.60;71.30
28358;DHT22;15605;48.114;11.522;2024-02-04T06:29:21;10.60;71.30
28358;DHT22;15605;48.114;11.522;2024-02-04T06:31:54;10.60;71.80
28358;DHT22;15605;48.114;11.522;2024-02-04T06:34:33;10.60;71.90
28358;DHT22;15605;48.114;11.522;2024-02-04T06:37:04;10.60;72.30
28358;DHT22;15605;48.114;11.522;2024-02-04T06:40:18;10.60;72.30
28358;DHT22;15605;48.114;11.522;2024-02-04T06:43:05;10.60;72.50
28358;DHT22;15605;48.114;11.522;2024-02-04T06:45:36;10.60;72.60
28358;DHT22;15605;48.114;11.522;2024-02-04T06:48:06;10.60;72.70
28358;DHT22;15605;48.114;11.522;2024-02-04T06:51:16;10.50;72.80
28358;DHT22;15605;48.114;11.522;2024-02-04T06:53:57;10.60;73.10
28358;DHT22;15605;48.114;11.522;2024-02-04T06:56:28;10.60;72.90
28358;DHT22;15605;48.114;11.522;2024-02-04T06:59:18;10.50;73.60
28358;DHT22;15605;48.114;11.522;2024-02-04T07:02:10;10.60;73.00
28358;DHT22;15605;48.114;11.522;2024-02-04T07:04:41;10.60;72.80
28358;DHT22;15605;48.114;11.522;2024-02-04T07:07:13;10.70;72.60
28358;DHT22;15605;48.114;11.522;2024-02-04T07:09:44;10.70;72.20
28358;DHT22;15605;48.114;11.522;2024-02-04T07:12:17;10.70;72.10
28358;DHT22;15605;48.114;11.522;2024-02-04T07:14:49;10.70;71.90
28358;DHT22;15605;48.114;11.522;2024-02-04T07:17:21;10.80;71.80
28358;DHT22;15605;48.114;11.522;2024-02-04T07:19:53;10.80;71.30
28358;DHT22;15605;48.114;11.522;2024-02-04T07:22:25;10.80;71.10
28358;DHT22;15605;48.114;11.522;2024-02-04T07:24:56;10.80;71.00
28358;DHT22;15605;48.114;11.522;2024-02-04T07:27:26;10.90;70.70
28358;DHT22;15605;48.114;11.522;2024-02-04T07:29:58;10.80;70.50
28358;DHT22;15605;48.114;11.522;2024-02-04T07:32:33;10.80;70.70
28358;DHT22;15605;48.114;11.522;2024-02-04T07:35:05;10.80;70.90
28358;DHT22;15605;48.114;11.522;2024-02-04T07:37:36;10.70;70.80
28358;DHT22;15605;48.114;11.522;2024-02-04T07:40:10;10.80;70.60
28358;DHT22;15605;48.114;11.522;2024-02-04T07:42:42;10.80;70.70
28358;DHT22;15605;48.114;11.522;2024-02-04T07:45:14;10.80;70.70
28358;DHT22;15605;48.114;11.522;2024-02-04T07:47:46;10.80;70.70
28358;DHT22;15605;48.114;11.522;2024-02-04T07:50:18;10.80;70.60
28358;DHT22;15605;48.114;11.522;2024-02-04T07:52:51;10.80;70.30
28358;DHT22;15605;48.114;11.522;2024-02-04T07:55:23;10.80;70.20
28358;DHT22;15605;48.114;11.522;2024-02-04T07:57:55;10.80;70.20
28358;DHT22;15605;48.114;11.522;2024-02-04T08:00:25;10.90;70.00
28358;DHT22;15605;48.114;11.522;2024-02-04T08:02:56;10.90;69.80
28358;DHT22;15605;48.114;11.522;2024-02-04T08:05:28;10.80;69.80
28358;DHT22;15605;48.114;11.522;2024-02-04T08:08:02;10.90;69.80
28358;DHT22;15605;48.114;11.522;2024-02-04T08:10:34;10.90;69.70
28358;DHT22;15605;48.114;11.522;2024-02-04T08:13:05;10.90;69.70
28358;DHT22;15605;48.114;11.522;2024-02-04T08:15:38;10.90;69.70
28358;DHT22;15605;48.114;11.522;2024-02-04T08:18:13;10.90;69.60
28358;DHT22;15605;48.114;11.522;2024-02-04T08:20:44;10.90;69.50
28358;DHT22;15605;48.114;11.522;2024-02-04T08:23:16;10.90;69.60
28358;DHT22;15605;48.114;11.522;2024-02-04T08:25:50;10.90;69.50
28358;DHT22;15605;48.114;11.522;2024-02-04T08:28:27;10.90;69.60
28358;DHT22;15605;48.114;11.522;2024-02-04T08:30:57;10.90;69.60
28358;DHT22;15605;48.114;11.522;2024-02-04T08:33:28;10.90;69.40
28358;DHT22;15605;48.114;11.522;2024-02-04T08:35:58;10.90;69.50
28358;DHT22;15605;48.114;11.522;2024-02-04T08:38:29;10.80;69.60
28358;DHT22;15605;48.114;11.522;2024-02-04T08:41:02;10.80;69.60
28358;DHT22;15605;48.114;11.522;2024-02-04T08:43:35;10.90;69.60
28358;DHT22;15605;48.114;11.522;2024-02-04T08:46:06;10.90;69.50
28358;DHT22;15605;48.114;11.522;2024-02-04T08:48:39;10.90;69.50
28358;DHT22;15605;48.114;11.522;2024-02-04T08:51:14;10.90;69.60
28358;DHT22;15605;48.114;11.522;2024-02-04T08:53:48;10.80;69.40
28358;DHT22;15605;48.114;11.522;2024-02-04T08:56:21;10.90;69.50
28358;DHT22;15605;48.114;11.522;2024-02-04T08:58:53;10.90;69.40
28358;DHT22;15605;48.114;11.522;2024-02-04T09:01:22;10.90;69.30
28358;DHT22;15605;48.114;11.522;2024-02-04T09:03:53;10.90;69.40
28358;DHT22;15605;48.114;11.522;2024-02-04T09:06:25;10.90;69.40
28358;DHT22;15605;48.114;11.522;2024-02-04T09:08:56;10.90;69.40
28358;DHT22;15605;48.114;11.522;2024-02-04T09:11:28;10.90;69.40
28358;DHT22;15605;48.114;11.522;2024-02-04T09:13:59;10.90;69.40
28358;DHT22;15605;48.114;11.522;2024-02-04T09:16:29;10.80;69.30
28358;DHT22;15605;48.114;11.522;2024-02-04T09:19:02;10.90;69.40
28358;DHT22;15605;48.114;11.522;2024-02-04T09:21:33;10.90;69.40
28358;DHT22;15605;48.114;11.522;2024-02-04T09:24:05;10.80;69.40
28358;DHT22;15605;48.114;11.522;2024-02-04T09:26:36;10.90;69.40
28358;DHT22;15605;48.114;11.522;2024-02-04T09:29:09;10.90;69.30
28358;DHT22;15605;48.114;11.522;2024-02-04T09:31:42;10.80;69.20
28358;DHT22;15605;48.114;11.522;2024-02-04T09:34:14;10.90;69.10
28358;DHT22;15605;48.114;11.522;2024-02-04T09:36:45;10.90;69.10
28358;DHT22;15605;48.114;11.522;2024-02-04T09:39:17;10.90;69.20
28358;DHT22;15605;48.114;11.522;2024-02-04T09:41:50;10.80;69.20
28358;DHT22;15605;48.114;11.522;2024-02-04T09:44:22;10.90;69.10
28358;DHT22;15605;48.114;11.522;2024-02-04T09:46:55;10.90;69.10
28358;DHT22;15605;48.114;11.522;2024-02-04T09:49:29;10.90;69.00
28358;DHT22;15605;48.114;11.522;2024-02-04T09:52:02;10.90;69.10
28358;DHT22;15605;48.114;11.522;2024-02-04T09:54:47;10.90;69.00
28358;DHT22;15605;48.114;11.522;2024-02-04T09:57:23;10.90;68.80
28358;DHT22;15605;48.114;11.522;2024-02-04T09:59:57;10.90;69.00
28358;DHT22;15605;48.114;11.522;2024-02-04T10:02:29;10.80;69.10
28358;DHT22;15605;48.114;11.522;2024-02-04T10:05:01;10.90;69.20
28358;DHT22;15605;48.114;11.522;2024-02-04T10:07:32;10.90;69.20
28358;DHT22;15605;48.114;11.522;2024-02-04T10:10:04;10.90;69.10
28358;DHT22;15605;48.114;11.522;2024-02-04T10:12:36;10.90;68.80
28358;DHT22;15605;48.114;11.522;2024-02-04T10:15:08;10.90;68.90
28358;DHT22;15605;48.114;11.522;2024-02-04T10:17:46;10.90;68.90
28358;DHT22;15605;48.114;11.522;2024-02-04T10:20:20;10.90;68.80
28358;DHT22;15605;48.114;11.522;2024-02-04T10:22:51;10.90;68.90
28358;DHT22;15605;48.114;11.522;2024-02-04T10:25:22;10.90;68.90
28358;DHT22;15605;48.114;11.522;2024-02-04T10:27:56;10.90;68.80
28358;DHT22;15605;48.114;11.522;2024-02-04T10:30:26;10.90;68.90
28358;DHT22;15605;48.114;11.522;2024-02-04T10:32:59;10.90;68.80
28358;DHT22;15605;48.114;11.522;2024-02-04T10:35:28;10.90;68.80
28358;DHT22;15605;48.114;11.522;2024-02-04T10:37:59;10.90;68.80
28358;DHT22;15605;48.114;11.522;2024-02-04T10:40:29;10.90;68.80
28358;DHT22;15605;48.114;11.522;2024-02-04T10:43:04;10.90;68.80
28358;DHT22;15605;48.114;11.522;2024-02-04T10:45:39;10.90;68.90
28358;DHT22;15605;48.114;11.522;2024-02-04T10:48:15;10.90;68.80
28358;DHT22;15605;48.114;11.522;2024-02-04T10:50:48;10.90;68.90
28358;DHT22;15605;48.114;11.522;2024-02-04T10:53:22;10.90;68.80
28358;DHT22;15605;48.114;11.522;2024-02-04T10:55:59;10.90;69.00
28358;DHT22;15605;48.114;11.522;2024-02-04T10:58:36;10.90;68.90
28358;DHT22;15605;48.114;11.522;2024-02-04T11:01:08;10.90;69.00
28358;DHT22;15605;48.114;11.522;2024-02-04T11:03:40;10.90;68.90
28358;DHT22;15605;48.114;11.522;2024-02-04T11:06:12;10.90;69.00
28358;DHT22;15605;48.114;11.522;2024-02-04T11:08:45;10.90;68.90
28358;DHT22;15605;48.114;11.522;2024-02-04T11:11:16;10.90;69.10
28358;DHT22;15605;48.114;11.522;2024-02-04T11:13:48;10.90;69.10
28358;DHT22;15605;48.114;11.522;2024-02-04T11:22:23;10.90;68.90
28358;DHT22;15605;48.114;11.522;2024-02-04T11:28:07;10.90;68.80
28358;DHT22;15605;48.114;11.522;2024-02-04T11:30:39;10.90;69.00
28358;DHT22;15605;48.114;11.522;2024-02-04T11:33:12;10.90;68.90
28358;DHT22;15605;48.114;11.522;2024-02-04T11:35:41;10.80;69.70
28358;DHT22;15605;48.114;11.522;2024-02-04T11:38:12;10.90;69.00
28358;DHT22;15605;48.114;11.522;2024-02-04T11:40:49;10.90;68.80
28358;DHT22;15605;48.114;11.522;2024-02-04T11:43:24;10.90;68.80
28358;DHT22;15605;48.114;11.522;2024-02-04T11:45:54;10.90;68.90
28358;DHT22;15605;48.114;11.522;2024-02-04T11:48:30;10.90;68.90
28358;DHT22;15605;48.114;11.522;2024-02-04T11:51:03;10.90;69.20
28358;DHT22;15605;48.114;11.522;2024-02-04T11:53:34;10.80;69.20
28358;DHT22;15605;48.114;11.522;2024-02-04T11:56:05;10.80;69.20
28358;DHT22;15605;48.114;11.522;2024-02-04T11:58:36;10.80;69.20
28358;DHT22;15605;48.114;11.522;2024-02-04T12:01:11;10.90;69.20
28358;DHT22;15605;48.114;11.522;2024-02-04T12:03:44;10.90;69.00
28358;DHT22;15605;48.114;11.522;2024-02-04T12:06:15;10.90;68.80
28358;DHT22;15605;48.114;11.522;2024-02-04T12:08:47;10.90;68.80
28358;DHT22;15605;48.114;11.522;2024-02-04T12:11:18;10.90;68.90
28358;DHT22;15605;48.114;11.522;2024-02-04T12:14:13;10.90;69.00
28358;DHT22;15605;48.114;11.522;2024-02-04T12:16:49;10.90;69.00
28358;DHT22;15605;48.114;11.522;2024-02-04T12:19:21;10.90;68.90
28358;DHT22;15605;48.114;11.522;2024-02-04T12:21:53;10.90;69.00
28358;DHT22;15605;48.114;11.522;2024-02-04T12:24:24;10.90;68.80
28358;DHT22;15605;48.114;11.522;2024-02-04T12:26:54;10.90;68.80
28358;DHT22;15605;48.114;11.522;2024-02-04T12:29:25;10.90;68.80
28358;DHT22;15605;48.114;11.522;2024-02-04T12:32:00;10.90;68.80
28358;DHT22;15605;48.114;11.522;2024-02-04T12:34:32;10.90;68.90
28358;DHT22;15605;48.114;11.522;2024-02-04T12:37:04;10.90;68.90
28358;DHT22;15605;48.114;11.522;2024-02-04T12:39:37;10.90;68.90
28358;DHT22;15605;48.114;11.522;2024-02-04T12:42:09;10.90;68.80
28358;DHT22;15605;48.114;11.522;2024-02-04T12:44:41;10.90;68.80
28358;DHT22;15605;48.114;11.522;2024-02-04T12:47:12;10.90;68.80
28358;DHT22;15605;48.114;11.522;2024-02-04T12:49:45;10.90;68.80
28358;DHT22;15605;48.114;11.522;2024-02-04T12:52:22;10.90;68.90
28358;DHT22;15605;48.114;11.522;2024-02-04T12:54:52;10.90;68.70
28358;DHT22;15605;48.114;11.522;2024-02-04T12:57:24;10.90;68.80
28358;DHT22;15605;48.114;11.522;2024-02-04T13:00:06;10.90;68.80
28358;DHT22;15605;48.114;11.522;2024-02-04T13:02:37;10.90;68.80
28358;DHT22;15605;48.114;11.522;2024-02-04T13:05:09;10.90;68.80
28358;DHT22;15605;48.114;11.522;2024-02-04T13:07:39;10.90;68.80
28358;DHT22;15605;48.114;11.522;2024-02-04T13:10:15;10.90;68.80
28358;DHT22;15605;48.114;11.522;2024-02-04T13:12:46;10.90;68.80
28358;DHT22;15605;48.114;11.522;2024-02-04T13:15:36;10.90;68.80
28358;DHT22;15605;48.114;11.522;2024-02-04T13:18:08;10.90;68.70
28358;DHT22;15605;48.114;11.522;2024-02-04T13:20:45;10.90;68.70
28358;DHT22;15605;48.114;11.522;2024-02-04T13:23:17;11.00;68.70
28358;DHT22;15605;48.114;11.522;2024-02-04T13:25:49;11.00;68.70
28358;DHT22;15605;48.114;11.522;2024-02-04T13:28:21;10.90;68.70
28358;DHT22;15605;48.114;11.522;2024-02-04T13:30:52;10.90;68.80
28358;DHT22;15605;48.114;11.522;2024-02-04T13:33:25;10.90;68.80
28358;DHT22;15605;48.114;11.522;2024-02-04T13:35:58;10.90;68.80
28358;DHT22;15605;48.114;11.522;2024-02-04T13:38:29;10.90;68.80
28358;DHT22;15605;48.114;11.522;2024-02-04T13:41:01;10.90;68.80
28358;DHT22;15605;48.114;11.522;2024-02-04T13:43:33;11.00;68.80
28358;DHT22;15605;48.114;11.522;2024-02-04T13:46:19;10.90;68.70
28358;DHT22;15605;48.114;11.522;2024-02-04T13:48:50;10.90;69.40
28358;DHT22;15605;48.114;11.522;2024-02-04T13:51:24;10.90;68.70
28358;DHT22;15605;48.114;11.522;2024-02-04T13:53:56;10.90;68.70
28358;DHT22;15605;48.114;11.522;2024-02-04T13:56:28;10.90;68.80
28358;DHT22;15605;48.114;11.522;2024-02-04T13:58:59;10.90;68.80
28358;DHT22;15605;48.114;11.522;2024-02-04T14:01:31;10.90;68.80
28358;DHT22;15605;48.114;11.522;2024-02-04T14:04:05;10.90;68.80
28358;DHT22;15605;48.114;11.522;2024-02-04T14:06:36;11.00;68.70
28358;DHT22;15605;48.114;11.522;2024-02-04T14:09:09;10.90;68.70
28358;DHT22;15605;48.114;11.522;2024-02-04T14:11:41;10.90;68.80
28358;DHT22;15605;48.114;11.522;2024-02-04T14:14:13;10.90;68.80
28358;DHT22;15605;48.114;11.522;2024-02-04T14:16:43;10.90;68.80
28358;DHT22;15605;48.114;11.522;2024-02-04T14:19:14;10.90;68.70
28358;DHT22;15605;48.114;11.522;2024-02-04T14:21:44;10.90;68.80
28358;DHT22;15605;48.114;11.522;2024-02-04T14:24:16;10.90;68.80
28358;DHT22;15605;48.114;11.522;2024-02-04T14:26:47;10.90;68.70
28358;DHT22;15605;48.114;11.522;2024-02-04T14:29:17;10.90;68.80
28358;DHT22;15605;48.114;11.522;2024-02-04T14:31:48;10.90;68.70
28358;DHT22;15605;48.114;11.522;2024-02-04T14:34:19;10.90;68.80
28358;DHT22;15605;48.114;11.522;2024-02-04T14:36:51;10.90;68.80
28358;DHT22;15605;48.114;11.522;2024-02-04T14:39:22;10.90;68.80
28358;DHT22;15605;48.114;11.522;2024-02-04T14:41:54;10.90;68.80
28358;DHT22;15605;48.114;11.522;2024-02-04T14:44:26;10.90;68.90
28358;DHT22;15605;48.114;11.522;2024-02-04T14:46:59;10.90;69.10
28358;DHT22;15605;48.114;11.522;2024-02-04T14:49:35;10.80;69.10
28358;DHT22;15605;48.114;11.522;2024-02-04T14:52:08;10.80;69.50
28358;DHT22;15605;48.114;11.522;2024-02-04T14:54:38;10.90;69.70
28358;DHT22;15605;48.114;11.522;2024-02-04T14:57:14;10.90;70.00
28358;DHT22;15605;48.114;11.522;2024-02-04T14:59:48;10.90;70.20
28358;DHT22;15605;48.114;11.522;2024-02-04T15:02:20;10.90;70.20
28358;DHT22;15605;48.114;11.522;2024-02-04T15:04:54;10.90;70.20
28358;DHT22;15605;48.114;11.522;2024-02-04T15:07:28;11.00;70.30
28358;DHT22;15605;48.114;11.522;2024-02-04T15:10:04;11.00;70.50
28358;DHT22;15605;48.114;11.522;2024-02-04T15:12:36;11.00;70.30
28358;DHT22;15605;48.114;11.522;2024-02-04T15:15:09;11.10;70.40
28358;DHT22;15605;48.114;11.522;2024-02-04T15:17:46;11.10;70.30
28358;DHT22;15605;48.114;11.522;2024-02-04T15:20:21;11.10;70.40
28358;DHT22;15605;48.114;11.522;2024-02-04T15:22:54;11.10;70.30
28358;DHT22;15605;48.114;11.522;2024-02-04T15:25:26;11.20;70.50
28358;DHT22;15605;48.114;11.522;2024-02-04T15:28:01;11.20;70.50
28358;DHT22;15605;48.114;11.522;2024-02-04T15:30:37;11.20;70.50
28358;DHT22;15605;48.114;11.522;2024-02-04T15:33:12;11.20;70.70
28358;DHT22;15605;48.114;11.522;2024-02-04T15:35:49;11.10;70.70
28358;DHT22;15605;48.114;11.522;2024-02-04T15:38:22;11.10;70.70
28358;DHT22;15605;48.114;11.522;2024-02-04T15:40:59;11.20;70.70
28358;DHT22;15605;48.114;11.522;2024-02-04T15:43:39;11.20;70.60
28358;DHT22;15605;48.114;11.522;2024-02-04T15:46:16;11.20;70.60
28358;DHT22;15605;48.114;11.522;2024-02-04T15:48:51;11.20;70.60
28358;DHT22;15605;48.114;11.522;2024-02-04T15:51:30;11.20;70.60
28358;DHT22;15605;48.114;11.522;2024-02-04T15:54:03;11.20;70.60
28358;DHT22;15605;48.114;11.522;2024-02-04T15:56:41;11.20;70.50
28358;DHT22;15605;48.114;11.522;2024-02-04T15:59:20;11.20;70.50
28358;DHT22;15605;48.114;11.522;2024-02-04T16:02:02;11.20;70.50
28358;DHT22;15605;48.114;11.522;2024-02-04T16:04:37;11.30;70.50
28358;DHT22;15605;48.114;11.522;2024-02-04T16:07:16;11.30;71.40
28358;DHT22;15605;48.114;11.522;2024-02-04T16:09:53;11.40;70.60
28358;DHT22;15605;48.114;11.522;2024-02-04T16:12:27;11.40;70.30
28358;DHT22;15605;48.114;11.522;2024-02-04T16:15:18;11.40;70.20